Time;durP1;ratioP1;P1;durP2;ratioP2;P2;SDS_P1;SDS_P2;PMS_P1;PMS_P2;Temp;Humidity;BMP_temperature;BMP_pressure;BME280_temperature;BME280_humidity;BME280_pressure;Samples;Min_cycle;Max_cycle;Signal;HPM_P1;HPM_P2
2022/07/17 00:00:17;;;;;;;0.00;0.00;;;14.90;71.20;;;;;;5029181;28;20044;-66
2022/07/17 00:02:42;;;;;;;0.00;0.00;;;14.90;71.90;;;;;;5028698;28;20048;-66
2022/07/17 00:05:09;;;;;;;0.00;0.00;;;14.80;72.00;;;;;;5029474;28;20046;-66
2022/07/17 00:07:34;;;;;;;0.00;0.00;;;14.80;72.20;;;;;;5011838;28;20499;-66
2022/07/17 00:10:00;;;;;;;0.00;0.00;;;14.80;72.30;;;;;;5028983;28;20044;-66
2022/07/17 00:12:26;;;;;;;0.00;0.00;;;14.90;72.50;;;;;;5029209;28;20566;-66
2022/07/17 00:14:51;;;;;;;0.00;0.00;;;14.80;72.40;;;;;;5011287;28;20045;-66
2022/07/17 00:17:17;;;;;;;0.00;0.00;;;14.80;72.80;;;;;;5028827;28;20121;-66
2022/07/17 00:19:44;;;;;;;0.00;0.00;;;14.70;72.70;;;;;;5028295;28;20041;-66
2022/07/17 00:22:10;;;;;;;0.00;0.00;;;14.70;73.00;;;;;;5028958;28;20049;-66
2022/07/17 00:24:35;;;;;;;0.00;0.00;;;14.70;72.70;;;;;;5029262;28;20033;-66
2022/07/17 00:27:01;;;;;;;0.00;0.00;;;14.70;73.10;;;;;;5028950;28;20042;-66
2022/07/17 00:29:27;;;;;;;0.00;0.00;;;14.60;72.60;;;;;;5028362;28;20046;-65
2022/07/17 00:31:53;;;;;;;0.00;0.00;;;14.70;72.70;;;;;;5029639;28;20516;-66
2022/07/17 00:34:18;;;;;;;0.00;0.00;;;14.60;72.50;;;;;;5028976;28;20045;-66
2022/07/17 00:36:44;;;;;;;0.00;0.00;;;14.60;72.40;;;;;;5029773;28;20042;-66
2022/07/17 00:39:10;;;;;;;0.00;0.00;;;14.50;73.40;;;;;;5027753;28;20045;-66
2022/07/17 00:41:35;;;;;;;0.00;0.00;;;14.50;72.90;;;;;;5028516;28;20056;-66
2022/07/17 00:44:19;;;;;;;0.00;0.00;;;14.50;72.90;;;;;;5029242;28;20560;-65
2022/07/17 00:46:45;;;;;;;0.00;0.00;;;14.50;73.20;;;;;;5021242;28;20453;-66
2022/07/17 00:49:10;;;;;;;0.00;0.00;;;14.50;73.30;;;;;;5027606;28;20045;-66
2022/07/17 00:51:36;;;;;;;0.00;0.00;;;14.50;73.40;;;;;;5028398;28;20045;-66
2022/07/17 00:54:03;;;;;;;0.00;0.00;;;14.50;73.80;;;;;;5028381;28;20485;-66
2022/07/17 00:56:29;;;;;;;0.00;0.00;;;14.40;73.20;;;;;;5010664;28;20077;-66
2022/07/17 00:58:55;;;;;;;0.00;0.00;;;14.40;73.40;;;;;;5030929;28;20034;-66
2022/07/17 01:01:20;;;;;;;0.00;0.00;;;14.40;73.30;;;;;;5032349;28;20041;-66
2022/07/17 01:03:46;;;;;;;0.00;0.00;;;14.40;73.60;;;;;;5014717;28;20567;-67
2022/07/17 01:06:12;;;;;;;0.00;0.00;;;14.30;73.40;;;;;;5033180;28;20037;-67
2022/07/17 01:08:38;;;;;;;0.00;0.00;;;14.20;73.90;;;;;;5032484;28;20863;-66
2022/07/17 01:11:07;;;;;;;0.00;0.00;;;14.30;74.00;;;;;;5032652;28;20056;-66
2022/07/17 01:13:33;;;;;;;0.00;0.00;;;14.20;73.60;;;;;;5015131;28;20550;-66
2022/07/17 01:15:59;;;;;;;0.00;0.00;;;14.20;73.30;;;;;;5031028;28;20045;-66
2022/07/17 01:18:24;;;;;;;0.05;0.03;;;14.20;73.40;;;;;;5031525;28;20111;-66
2022/07/17 01:20:50;;;;;;;0.00;0.00;;;14.20;73.40;;;;;;5032869;28;20034;-66
2022/07/17 01:23:18;;;;;;;0.00;0.00;;;14.20;73.90;;;;;;5015177;28;20483;-66
2022/07/17 01:25:44;;;;;;;0.00;0.00;;;14.30;74.20;;;;;;5032218;28;20489;-66
2022/07/17 01:28:11;;;;;;;0.00;0.00;;;14.30;74.30;;;;;;5031832;28;20120;-66
2022/07/17 01:30:45;;;;;;;0.00;0.00;;;14.30;74.50;;;;;;5031925;28;20508;-66
2022/07/17 01:33:11;;;;;;;0.00;0.00;;;14.30;74.60;;;;;;5031785;28;20116;-66
2022/07/17 01:35:36;;;;;;;0.10;0.10;;;14.30;74.90;;;;;;5032245;28;20753;-66
2022/07/17 01:38:02;;;;;;;0.00;0.00;;;14.30;75.40;;;;;;5013748;28;20041;-65
2022/07/17 01:40:28;;;;;;;0.00;0.00;;;14.30;75.00;;;;;;5028003;28;20065;-66
2022/07/17 01:42:53;;;;;;;0.00;0.00;;;14.30;74.60;;;;;;5032670;28;20542;-66
2022/07/17 01:45:19;;;;;;;0.00;0.00;;;14.30;74.60;;;;;;5031265;28;20128;-66
2022/07/17 01:47:45;;;;;;;0.00;0.00;;;14.30;74.20;;;;;;5031972;28;20406;-66
2022/07/17 01:50:12;;;;;;;0.00;0.00;;;14.30;74.80;;;;;;5031728;28;20034;-65
2022/07/17 01:52:40;;;;;;;0.00;0.00;;;14.30;74.40;;;;;;5029820;28;20053;-65
2022/07/17 01:55:08;;;;;;;0.00;0.00;;;14.30;74.90;;;;;;5011935;28;20137;-66
2022/07/17 01:57:34;;;;;;;0.00;0.00;;;14.30;75.90;;;;;;5031244;28;20030;-66
2022/07/17 02:00:00;;;;;;;0.00;0.00;;;14.30;76.40;;;;;;5013614;28;20042;-66
2022/07/17 02:02:25;;;;;;;0.00;0.00;;;14.30;76.80;;;;;;5030797;28;20073;-66
2022/07/17 02:04:51;;;;;;;0.00;0.00;;;14.20;77.20;;;;;;5032080;28;20041;-66
2022/07/17 02:07:17;;;;;;;0.00;0.00;;;14.20;77.60;;;;;;5031491;28;20069;-66
2022/07/17 02:09:42;;;;;;;0.00;0.00;;;14.20;76.80;;;;;;5030866;28;20494;-66
2022/07/17 02:12:08;;;;;;;0.00;0.00;;;14.20;76.60;;;;;;5031191;28;20037;-66
2022/07/17 02:14:34;;;;;;;0.00;0.00;;;14.30;76.20;;;;;;5030961;28;20041;-66
2022/07/17 02:17:00;;;;;;;0.00;0.00;;;14.20;76.30;;;;;;5030486;28;20068;-66
2022/07/17 02:19:26;;;;;;;0.00;0.00;;;14.20;75.60;;;;;;5030696;28;20397;-66
2022/07/17 02:21:52;;;;;;;0.00;0.00;;;14.20;75.40;;;;;;5031257;28;20045;-65
2022/07/17 02:24:18;;;;;;;0.00;0.00;;;14.20;75.40;;;;;;5030730;28;20415;-67
2022/07/17 02:26:44;;;;;;;0.00;0.00;;;14.10;75.00;;;;;;5031236;28;20041;-67
2022/07/17 02:29:10;;;;;;;0.00;0.00;;;14.10;75.30;;;;;;5031668;28;20087;-66
2022/07/17 02:31:36;;;;;;;0.00;0.00;;;14.10;75.30;;;;;;5013146;28;20041;-66
2022/07/17 02:34:01;;;;;;;0.00;0.00;;;14.10;75.40;;;;;;5030483;28;20376;-66
2022/07/17 02:36:27;;;;;;;0.00;0.00;;;14.10;75.70;;;;;;5031097;28;20080;-66
2022/07/17 02:38:53;;;;;;;0.00;0.00;;;14.10;75.60;;;;;;5031061;28;20038;-67
2022/07/17 02:41:18;;;;;;;0.00;0.00;;;14.10;75.90;;;;;;5030703;28;20087;-67
2022/07/17 02:43:44;;;;;;;0.00;0.00;;;14.10;76.40;;;;;;5030568;28;20091;-67
2022/07/17 02:46:10;;;;;;;0.00;0.00;;;14.10;76.70;;;;;;5031405;28;20037;-66
2022/07/17 02:48:35;;;;;;;0.00;0.00;;;14.10;77.30;;;;;;5031433;28;20052;-66
2022/07/17 02:51:02;;;;;;;0.00;0.00;;;14.10;78.20;;;;;;5030130;28;20061;-66
2022/07/17 02:53:27;;;;;;;0.00;0.00;;;14.10;78.00;;;;;;5029965;28;20049;-66
2022/07/17 02:55:53;;;;;;;0.00;0.00;;;14.10;77.80;;;;;;5027168;28;20091;-66
2022/07/17 02:58:19;;;;;;;0.00;0.00;;;14.10;77.20;;;;;;5030268;28;20060;-67
2022/07/17 03:00:44;;;;;;;0.00;0.00;;;14.10;76.70;;;;;;5030595;28;20048;-66
2022/07/17 03:03:10;;;;;;;0.08;0.08;;;14.10;76.60;;;;;;5030482;28;20044;-66
2022/07/17 03:05:36;;;;;;;0.00;0.00;;;14.10;76.40;;;;;;5030750;28;20042;-67
2022/07/17 03:08:02;;;;;;;0.00;0.00;;;14.10;76.80;;;;;;5030369;28;20041;-66
2022/07/17 03:10:27;;;;;;;0.00;0.00;;;14.10;76.80;;;;;;5030075;28;20045;-66
2022/07/17 03:12:53;;;;;;;0.00;0.00;;;14.10;76.90;;;;;;5030217;28;20033;-67
2022/07/17 03:15:19;;;;;;;0.00;0.00;;;14.10;76.60;;;;;;5028568;28;20133;-67
2022/07/17 03:17:44;;;;;;;0.00;0.00;;;14.10;76.70;;;;;;5030242;28;20037;-66
2022/07/17 03:20:10;;;;;;;0.00;0.00;;;14.10;76.60;;;;;;5029495;28;20505;-66
2022/07/17 03:22:36;;;;;;;0.00;0.00;;;14.10;76.40;;;;;;5029772;28;20733;-66
2022/07/17 03:25:02;;;;;;;0.00;0.00;;;14.10;77.10;;;;;;5030773;28;20128;-66
2022/07/17 03:27:28;;;;;;;0.00;0.00;;;14.10;77.00;;;;;;5030273;28;20129;-66
2022/07/17 03:29:54;;;;;;;0.00;0.00;;;14.20;76.50;;;;;;5029191;28;20117;-66
2022/07/17 03:32:20;;;;;;;0.00;0.00;;;14.10;76.30;;;;;;5029549;28;20042;-66
2022/07/17 03:34:46;;;;;;;0.00;0.00;;;14.10;76.40;;;;;;5029161;28;20087;-66
2022/07/17 03:37:12;;;;;;;0.00;0.00;;;14.10;76.20;;;;;;5029847;28;20041;-66
2022/07/17 03:39:37;;;;;;;0.00;0.00;;;14.10;76.30;;;;;;5029544;28;20072;-66
2022/07/17 03:42:03;;;;;;;0.00;0.00;;;14.20;76.70;;;;;;5029705;28;20129;-66
2022/07/17 03:44:29;;;;;;;0.00;0.00;;;14.20;76.60;;;;;;5010969;28;20088;-66
2022/07/17 03:46:55;;;;;;;0.00;0.00;;;14.20;76.90;;;;;;5030211;28;20435;-66
2022/07/17 03:49:20;;;;;;;0.00;0.00;;;14.30;76.90;;;;;;5027129;28;20477;-67
2022/07/17 03:51:46;;;;;;;0.00;0.00;;;14.30;77.50;;;;;;5009950;28;20054;-66
2022/07/17 03:54:12;;;;;;;0.00;0.00;;;14.30;78.30;;;;;;5018013;28;20077;-67
2022/07/17 03:56:37;;;;;;;0.00;0.00;;;14.30;78.30;;;;;;5025825;28;20050;-67
2022/07/17 03:59:03;;;;;;;0.00;0.00;;;14.30;78.20;;;;;;5028355;28;20739;-67
2022/07/17 04:01:29;;;;;;;0.00;0.00;;;14.30;78.30;;;;;;5029096;28;20084;-66
2022/07/17 04:03:54;;;;;;;0.00;0.00;;;14.30;78.00;;;;;;5012213;28;20107;-66
2022/07/17 04:06:20;;;;;;;0.00;0.00;;;14.30;78.00;;;;;;5029260;28;20917;-67
2022/07/17 04:08:46;;;;;;;0.00;0.00;;;14.30;77.80;;;;;;5028960;28;20034;-67
2022/07/17 04:11:11;;;;;;;0.00;0.00;;;14.30;77.90;;;;;;5028237;28;20406;-67
2022/07/17 04:13:37;;;;;;;0.00;0.00;;;14.40;78.30;;;;;;5029178;28;20037;-66
2022/07/17 04:16:03;;;;;;;0.00;0.00;;;14.40;78.20;;;;;;5029301;28;20045;-67
2022/07/17 04:18:33;;;;;;;0.00;0.00;;;14.50;78.40;;;;;;5027530;28;20037;-69
2022/07/17 04:21:02;;;;;;;0.00;0.00;;;14.50;78.30;;;;;;5028693;28;20556;-66
2022/07/17 04:23:29;;;;;;;0.08;0.08;;;14.50;78.20;;;;;;5028822;28;20046;-66
2022/07/17 04:25:54;;;;;;;0.00;0.00;;;14.60;78.10;;;;;;5028981;28;20037;-66
2022/07/17 04:28:23;;;;;;;0.00;0.00;;;14.50;77.90;;;;;;5028512;28;20050;-65
2022/07/17 04:30:49;;;;;;;0.00;0.00;;;14.60;77.80;;;;;;5027203;28;20087;-66
2022/07/17 04:33:15;;;;;;;0.00;0.00;;;14.60;77.90;;;;;;5026878;28;20092;-66
2022/07/17 04:35:40;;;;;;;0.00;0.00;;;14.60;78.00;;;;;;5028508;28;20124;-66
2022/07/17 04:38:08;;;;;;;0.00;0.00;;;14.70;77.90;;;;;;5028362;28;20049;-66
2022/07/17 04:40:35;;;;;;;0.00;0.00;;;14.70;77.70;;;;;;5028451;28;20037;-66
2022/07/17 04:43:01;;;;;;;0.00;0.00;;;14.70;77.60;;;;;;5028047;28;20056;-67
2022/07/17 04:45:28;;;;;;;0.00;0.00;;;14.80;77.20;;;;;;5027090;28;20049;-67
2022/07/17 04:47:54;;;;;;;0.00;0.00;;;14.80;77.30;;;;;;5027764;28;20053;-66
2022/07/17 04:50:20;;;;;;;0.00;0.00;;;14.80;77.20;;;;;;5027810;28;20052;-67
2022/07/17 04:52:45;;;;;;;0.00;0.00;;;14.90;77.30;;;;;;5027808;28;20042;-67
2022/07/17 04:55:11;;;;;;;0.00;0.00;;;14.90;77.00;;;;;;5028166;28;20099;-66
2022/07/17 04:57:36;;;;;;;0.00;0.00;;;15.00;76.70;;;;;;5028243;28;20057;-67
2022/07/17 05:00:07;;;;;;;0.00;0.00;;;15.00;76.70;;;;;;5010302;28;20776;-67
2022/07/17 05:02:33;;;;;;;0.00;0.00;;;15.00;76.40;;;;;;5028184;28;20053;-67
2022/07/17 05:04:58;;;;;;;0.00;0.00;;;15.10;76.10;;;;;;5024564;28;20521;-67
2022/07/17 05:07:24;;;;;;;0.00;0.00;;;15.10;76.00;;;;;;5027765;28;20045;-67
2022/07/17 05:09:50;;;;;;;0.00;0.00;;;15.10;75.80;;;;;;5027346;28;20120;-67
2022/07/17 05:12:15;;;;;;;0.00;0.00;;;15.10;75.50;;;;;;5033478;28;20046;-67
2022/07/17 05:14:41;;;;;;;0.00;0.00;;;15.20;75.60;;;;;;5025308;28;20057;-67
2022/07/17 05:17:07;;;;;;;0.05;0.05;;;15.20;75.40;;;;;;5022354;28;20614;-67
2022/07/17 05:19:32;;;;;;;0.00;0.00;;;15.20;75.30;;;;;;5023634;28;20037;-68
2022/07/17 05:21:59;;;;;;;0.00;0.00;;;15.30;75.50;;;;;;5013993;28;20107;-67
2022/07/17 05:24:24;;;;;;;0.00;0.00;;;15.30;75.50;;;;;;5020377;28;20046;-67
2022/07/17 05:26:50;;;;;;;0.00;0.00;;;15.30;75.50;;;;;;5023571;28;20102;-67
2022/07/17 05:29:15;;;;;;;0.00;0.00;;;15.40;75.60;;;;;;5026972;28;20073;-67
2022/07/17 05:31:41;;;;;;;0.00;0.00;;;15.40;75.70;;;;;;5028308;28;20091;-67
2022/07/17 05:34:07;;;;;;;0.00;0.00;;;15.50;75.70;;;;;;5026373;28;20038;-67
2022/07/17 05:36:32;;;;;;;0.00;0.00;;;15.50;75.80;;;;;;5028340;28;20053;-67
2022/07/17 05:38:58;;;;;;;0.00;0.00;;;15.60;76.00;;;;;;5028702;28;20041;-67
2022/07/17 05:41:24;;;;;;;0.00;0.00;;;15.60;76.10;;;;;;5007928;28;20120;-67
2022/07/17 05:43:49;;;;;;;0.00;0.00;;;15.60;76.40;;;;;;5026079;28;20085;-67
2022/07/17 05:46:15;;;;;;;0.00;0.00;;;15.60;76.60;;;;;;5013827;28;20481;-67
2022/07/17 05:48:41;;;;;;;0.00;0.00;;;15.60;76.70;;;;;;5031091;28;20044;-67
2022/07/17 05:51:06;;;;;;;0.00;0.00;;;15.70;76.70;;;;;;5013575;28;20064;-67
2022/07/17 05:53:32;;;;;;;0.00;0.00;;;15.60;76.50;;;;;;5030680;28;20165;-67
2022/07/17 05:55:58;;;;;;;0.00;0.00;;;15.70;76.20;;;;;;5013220;28;20511;-67
2022/07/17 05:58:24;;;;;;;0.00;0.00;;;15.60;76.40;;;;;;5030517;28;20129;-68
2022/07/17 06:00:50;;;;;;;0.00;0.00;;;15.60;76.30;;;;;;5013971;28;20081;-67
2022/07/17 06:03:16;;;;;;;0.00;0.00;;;15.70;76.80;;;;;;5031123;28;20057;-67
2022/07/17 06:05:41;;;;;;;0.10;0.10;;;15.80;76.80;;;;;;5030939;28;20042;-67
2022/07/17 06:08:07;;;;;;;0.00;0.00;;;15.70;77.50;;;;;;5031235;28;20410;-67
2022/07/17 06:10:33;;;;;;;0.00;0.00;;;15.70;77.70;;;;;;5030405;28;20116;-68
2022/07/17 06:12:59;;;;;;;0.00;0.00;;;15.80;77.40;;;;;;5029493;28;20081;-67
2022/07/17 06:15:25;;;;;;;0.00;0.00;;;15.90;77.50;;;;;;5029922;28;20045;-67
2022/07/17 06:17:51;;;;;;;0.00;0.00;;;16.00;77.20;;;;;;5030443;28;20038;-67
2022/07/17 06:20:17;;;;;;;0.00;0.00;;;16.00;77.40;;;;;;5030063;28;20119;-67
2022/07/17 06:22:44;;;;;;;0.00;0.00;;;16.00;77.30;;;;;;5016022;28;20060;-67
2022/07/17 06:25:11;;;;;;;0.00;0.00;;;16.10;77.10;;;;;;5013013;28;20133;-67
2022/07/17 06:27:41;;;;;;;0.00;0.00;;;16.10;77.10;;;;;;5031366;28;20049;-67
2022/07/17 06:30:08;;;;;;;0.00;0.00;;;16.20;77.10;;;;;;5031033;28;20551;-66
2022/07/17 06:32:34;;;;;;;0.00;0.00;;;16.30;76.90;;;;;;5031289;28;20049;-67
2022/07/17 06:34:59;;;;;;;0.00;0.00;;;16.30;76.80;;;;;;5012206;28;20048;-67
2022/07/17 06:37:25;;;;;;;0.00;0.00;;;16.40;77.20;;;;;;5012920;28;20725;-68
2022/07/17 06:39:50;;;;;;;0.00;0.00;;;16.50;77.00;;;;;;5030893;28;20041;-68
2022/07/17 06:42:16;;;;;;;0.00;0.00;;;16.60;78.00;;;;;;5030856;28;20041;-68
2022/07/17 06:44:42;;;;;;;0.00;0.00;;;16.70;77.60;;;;;;5031219;28;20402;-67
2022/07/17 06:47:07;;;;;;;0.00;0.00;;;16.80;76.40;;;;;;5029575;28;20142;-67
2022/07/17 06:49:33;;;;;;;0.10;0.10;;;16.80;75.90;;;;;;5030998;28;20487;-68
2022/07/17 06:51:58;;;;;;;0.00;0.00;;;16.80;75.40;;;;;;5031205;28;20557;-67
2022/07/17 06:54:25;;;;;;;0.00;0.00;;;16.80;75.60;;;;;;5029981;28;20041;-68
2022/07/17 06:56:52;;;;;;;0.00;0.00;;;16.90;75.10;;;;;;5029504;28;20434;-68
2022/07/17 06:59:19;;;;;;;0.00;0.00;;;16.90;73.80;;;;;;5030529;28;20049;-68
2022/07/17 07:01:45;;;;;;;0.00;0.00;;;17.00;73.00;;;;;;5030240;28;20080;-68
2022/07/17 07:04:10;;;;;;;0.00;0.00;;;16.90;73.10;;;;;;5030383;28;20073;-68
2022/07/17 07:06:36;;;;;;;0.00;0.00;;;16.90;72.60;;;;;;5030236;28;20072;-68
2022/07/17 07:09:02;;;;;;;0.00;0.00;;;16.90;72.00;;;;;;5030415;28;20496;-68
2022/07/17 07:11:27;;;;;;;0.00;0.00;;;16.90;71.90;;;;;;5030512;28;20502;-68
2022/07/17 07:13:53;;;;;;;0.00;0.00;;;16.90;72.10;;;;;;5030527;28;20034;-68
2022/07/17 07:16:20;;;;;;;0.00;0.00;;;17.10;72.40;;;;;;5029893;28;20525;-69
2022/07/17 07:18:46;;;;;;;0.00;0.00;;;17.10;72.50;;;;;;5030304;28;20056;-69
2022/07/17 07:21:11;;;;;;;0.00;0.00;;;17.10;71.60;;;;;;5030620;28;20041;-68
2022/07/17 07:23:37;;;;;;;0.00;0.00;;;17.10;71.50;;;;;;5012424;28;20057;-68
2022/07/17 07:26:02;;;;;;;0.00;0.00;;;17.10;70.60;;;;;;5030540;28;20041;-69
2022/07/17 07:28:28;;;;;;;0.00;0.00;;;17.10;70.50;;;;;;5030203;28;20033;-68
2022/07/17 07:30:54;;;;;;;0.20;0.20;;;17.20;70.60;;;;;;5030010;28;20045;-69
2022/07/17 07:33:19;;;;;;;0.00;0.00;;;17.30;70.40;;;;;;5029907;28;20048;-69
2022/07/17 07:35:45;;;;;;;0.00;0.00;;;17.30;70.20;;;;;;5008038;28;20379;-68
2022/07/17 07:38:11;;;;;;;0.00;0.00;;;17.40;70.60;;;;;;5011677;28;20388;-69
2022/07/17 07:40:37;;;;;;;0.00;0.00;;;17.40;70.50;;;;;;5017638;28;20045;-70
2022/07/17 07:43:03;;;;;;;0.00;0.00;;;17.50;70.40;;;;;;5027362;28;20421;-69
2022/07/17 07:45:29;;;;;;;0.00;0.00;;;17.50;70.20;;;;;;5019860;28;20054;-70
2022/07/17 07:47:55;;;;;;;0.00;0.00;;;17.50;69.80;;;;;;5026560;28;20049;-70
2022/07/17 07:50:23;;;;;;;0.00;0.00;;;17.50;70.00;;;;;;5025304;28;20053;-69
2022/07/17 07:52:49;;;;;;;0.00;0.00;;;17.50;70.00;;;;;;5027825;28;20790;-69
2022/07/17 07:55:16;;;;;;;0.00;0.00;;;17.60;70.20;;;;;;5029443;28;20053;-69
2022/07/17 07:57:41;;;;;;;0.00;0.00;;;17.60;70.20;;;;;;5028886;28;20049;-69
2022/07/17 08:00:09;;;;;;;0.00;0.00;;;17.60;69.90;;;;;;5029181;28;20069;-69
2022/07/17 08:02:34;;;;;;;0.10;0.10;;;17.60;69.90;;;;;;5029081;28;20049;-69
2022/07/17 08:05:00;;;;;;;0.00;0.00;;;17.70;70.50;;;;;;5028237;28;20400;-69
2022/07/17 08:07:27;;;;;;;0.00;0.00;;;17.70;70.00;;;;;;5010340;28;20555;-69
2022/07/17 08:09:53;;;;;;;0.00;0.00;;;17.80;70.30;;;;;;5027467;28;20093;-69
2022/07/17 08:12:18;;;;;;;0.00;0.00;;;17.80;69.90;;;;;;5009376;28;20045;-69
2022/07/17 08:14:44;;;;;;;0.00;0.00;;;17.80;69.80;;;;;;5016636;28;20052;-69
2022/07/17 08:17:10;;;;;;;0.00;0.00;;;17.90;69.90;;;;;;5028520;28;20076;-68
2022/07/17 08:19:35;;;;;;;0.00;0.00;;;17.90;69.90;;;;;;5028858;28;20053;-68
2022/07/17 08:22:01;;;;;;;0.00;0.00;;;18.00;70.40;;;;;;5028460;28;20070;-68
2022/07/17 08:24:26;;;;;;;0.00;0.00;;;18.10;70.00;;;;;;5028605;28;20503;-69
2022/07/17 08:26:52;;;;;;;0.00;0.00;;;18.10;70.10;;;;;;5028815;28;20077;-68
2022/07/17 08:29:18;;;;;;;0.00;0.00;;;18.10;70.20;;;;;;5028359;28;20400;-69
2022/07/17 08:31:43;;;;;;;0.00;0.00;;;18.10;70.00;;;;;;5010442;28;20045;-68
2022/07/17 08:34:09;;;;;;;0.00;0.00;;;18.20;69.70;;;;;;5028684;28;20037;-68
2022/07/17 08:36:35;;;;;;;0.00;0.00;;;18.20;69.20;;;;;;5027661;28;20080;-69
2022/07/17 08:39:01;;;;;;;0.00;0.00;;;18.30;69.30;;;;;;5028518;28;20084;-68
2022/07/17 08:41:28;;;;;;;0.00;0.00;;;18.30;69.70;;;;;;5028490;28;20108;-68
2022/07/17 08:43:54;;;;;;;0.00;0.00;;;18.40;69.20;;;;;;5028738;28;20052;-68
2022/07/17 08:46:23;;;;;;;0.00;0.00;;;18.40;69.60;;;;;;5028413;28;20061;-68
2022/07/17 08:48:52;;;;;;;0.00;0.00;;;18.50;69.50;;;;;;5028650;28;20053;-69
2022/07/17 08:51:18;;;;;;;0.00;0.00;;;18.60;68.90;;;;;;5013446;28;20115;-68
2022/07/17 08:53:44;;;;;;;0.00;0.00;;;18.60;68.50;;;;;;5028360;28;20049;-69
2022/07/17 08:56:10;;;;;;;0.00;0.00;;;18.60;68.40;;;;;;4991232;28;20107;-68
2022/07/17 08:58:36;;;;;;;0.00;0.00;;;18.70;68.20;;;;;;5019846;28;20042;-68
2022/07/17 09:01:03;;;;;;;0.00;0.00;;;18.80;68.40;;;;;;5028653;28;20054;-68
2022/07/17 09:03:28;;;;;;;0.00;0.00;;;18.80;68.00;;;;;;5028722;28;20123;-69
2022/07/17 09:05:54;;;;;;;0.00;0.00;;;18.90;67.80;;;;;;5028330;28;20570;-68
2022/07/17 09:08:22;;;;;;;0.00;0.00;;;19.00;68.00;;;;;;5028013;28;20099;-69
2022/07/17 09:10:51;;;;;;;0.00;0.00;;;19.00;67.10;;;;;;5027365;28;20413;-70
2022/07/17 09:13:29;;;;;;;0.00;0.00;;;19.10;67.20;;;;;;5028500;28;20048;-66
2022/07/17 09:16:13;;;;;;;0.00;0.00;;;19.20;67.40;;;;;;5024320;28;20132;-66
2022/07/17 09:18:47;;;;;;;0.00;0.00;;;19.20;67.20;;;;;;5011433;28;20429;-66
2022/07/17 09:21:21;;;;;;;0.00;0.00;;;19.30;66.20;;;;;;5030452;28;20131;-67
2022/07/17 09:24:07;;;;;;;0.00;0.00;;;19.30;66.40;;;;;;5030064;28;20139;-68
2022/07/17 09:26:34;;;;;;;0.00;0.00;;;19.40;66.60;;;;;;5027860;28;20551;-66
2022/07/17 09:29:03;;;;;;;0.00;0.00;;;19.40;65.30;;;;;;5031871;28;20050;-66
2022/07/17 09:31:31;;;;;;;0.00;0.00;;;19.30;65.80;;;;;;5014598;28;20502;-67
2022/07/17 09:33:58;;;;;;;0.00;0.00;;;19.40;65.70;;;;;;5014544;28;20041;-66
2022/07/17 09:36:25;;;;;;;0.00;0.00;;;19.50;65.10;;;;;;5013761;28;20053;-67
2022/07/17 09:38:55;;;;;;;0.00;0.00;;;19.50;65.60;;;;;;5031955;28;20034;-67
2022/07/17 09:41:22;;;;;;;0.00;0.00;;;19.50;65.90;;;;;;5012359;28;20099;-67
2022/07/17 09:43:53;;;;;;;0.00;0.00;;;19.50;65.10;;;;;;5011708;28;20049;-67
2022/07/17 09:46:22;;;;;;;0.00;0.00;;;19.60;65.00;;;;;;5012063;28;20124;-67
2022/07/17 09:48:51;;;;;;;0.00;0.00;;;19.60;65.50;;;;;;5012221;28;20121;-67
2022/07/17 09:51:19;;;;;;;0.00;0.00;;;19.70;65.00;;;;;;5023102;28;20057;-67
2022/07/17 09:53:47;;;;;;;0.00;0.00;;;19.70;64.60;;;;;;5024685;28;20052;-67
2022/07/17 09:56:17;;;;;;;0.00;0.00;;;19.80;63.20;;;;;;5032009;28;20049;-68
2022/07/17 09:59:10;;;;;;;0.00;0.00;;;19.80;63.70;;;;;;5012467;28;20060;-68
2022/07/17 10:01:38;;;;;;;0.00;0.00;;;19.90;64.20;;;;;;5025860;28;20042;-68
2022/07/17 10:04:04;;;;;;;0.00;0.00;;;20.00;64.70;;;;;;5027668;28;20045;-67
2022/07/17 10:06:30;;;;;;;0.00;0.00;;;20.10;64.60;;;;;;5031638;28;20038;-68
2022/07/17 10:08:56;;;;;;;0.00;0.00;;;20.10;64.10;;;;;;5030581;28;20120;-68
2022/07/17 10:11:25;;;;;;;0.00;0.00;;;20.20;63.90;;;;;;5030631;28;20050;-67
2022/07/17 10:13:53;;;;;;;0.00;0.00;;;20.30;64.50;;;;;;5029362;28;20042;-68
2022/07/17 10:16:30;;;;;;;0.00;0.00;;;20.40;63.90;;;;;;5029069;28;20080;-67
2022/07/17 10:18:57;;;;;;;0.00;0.00;;;20.50;63.50;;;;;;5031178;28;20049;-67
2022/07/17 10:21:26;;;;;;;0.00;0.00;;;20.50;62.60;;;;;;5030927;28;20655;-67
2022/07/17 10:23:55;;;;;;;0.00;0.00;;;20.50;61.60;;;;;;5030811;28;20082;-68
2022/07/17 10:26:43;;;;;;;0.00;0.00;;;20.60;62.30;;;;;;5030989;28;20124;-68
2022/07/17 10:29:28;;;;;;;0.00;0.00;;;20.60;63.10;;;;;;5030607;28;20068;-68
2022/07/17 10:31:54;;;;;;;0.00;0.00;;;20.60;62.30;;;;;;5029682;28;20076;-67
2022/07/17 10:34:37;;;;;;;0.00;0.00;;;20.60;62.60;;;;;;5030971;28;20068;-68
2022/07/17 10:37:40;;;;;;;0.00;0.00;;;20.60;62.70;;;;;;5007866;28;20605;-67
2022/07/17 10:40:11;;;;;;;0.00;0.00;;;20.70;61.50;;;;;;5014161;28;20052;-68
2022/07/17 10:42:47;;;;;;;0.00;0.00;;;20.80;61.80;;;;;;5031278;28;20069;-68
2022/07/17 10:45:16;;;;;;;0.00;0.00;;;20.90;60.10;;;;;;5029331;28;20130;-67
2022/07/17 10:47:46;;;;;;;0.00;0.00;;;21.00;60.10;;;;;;5030355;28;20042;-68
2022/07/17 10:50:14;;;;;;;0.00;0.00;;;21.10;61.90;;;;;;5030605;28;20069;-68
2022/07/17 10:52:40;;;;;;;0.00;0.00;;;21.20;61.40;;;;;;5012976;28;20064;-68
2022/07/17 10:55:17;;;;;;;0.00;0.00;;;21.20;60.60;;;;;;5030176;28;20045;-68
2022/07/17 10:57:42;;;;;;;0.00;0.00;;;21.30;60.60;;;;;;5030199;28;20045;-67
2022/07/17 11:00:10;;;;;;;0.00;0.00;;;21.40;58.80;;;;;;5030054;28;20043;-68
2022/07/17 11:02:36;;;;;;;0.00;0.00;;;21.50;61.00;;;;;;5030994;28;20073;-68
2022/07/17 11:05:09;;;;;;;0.00;0.00;;;21.60;60.10;;;;;;5030226;28;20080;-68
2022/07/17 11:07:35;;;;;;;0.00;0.00;;;21.80;59.80;;;;;;5012819;28;20052;-68
2022/07/17 11:10:01;;;;;;;0.00;0.00;;;21.90;59.40;;;;;;5030606;28;20041;-68
2022/07/17 11:12:34;;;;;;;0.00;0.00;;;22.00;58.30;;;;;;5012529;28;20037;-68
2022/07/17 11:15:01;;;;;;;0.00;0.00;;;22.00;59.10;;;;;;5030454;28;20059;-67
2022/07/17 11:17:27;;;;;;;0.00;0.00;;;22.10;58.20;;;;;;5029706;28;20037;-68
2022/07/17 11:19:53;;;;;;;0.20;0.20;;;22.20;57.10;;;;;;5029971;28;20053;-68
2022/07/17 11:22:27;;;;;;;0.00;0.00;;;22.20;57.90;;;;;;5029864;28;20046;-68
2022/07/17 11:24:52;;;;;;;0.00;0.00;;;22.20;57.00;;;;;;5030937;28;20107;-68
2022/07/17 11:27:24;;;;;;;0.00;0.00;;;22.30;56.50;;;;;;5030133;28;20498;-68
2022/07/17 11:29:51;;;;;;;0.00;0.00;;;22.40;56.90;;;;;;5030542;28;20580;-67
2022/07/17 11:32:18;;;;;;;0.00;0.00;;;22.40;57.40;;;;;;5029694;28;20037;-68
2022/07/17 11:34:43;;;;;;;0.00;0.00;;;22.40;55.80;;;;;;5030066;28;20048;-68
2022/07/17 11:37:10;;;;;;;0.00;0.00;;;22.50;56.10;;;;;;5029820;28;20045;-68
2022/07/17 11:39:41;;;;;;;0.00;0.00;;;22.40;56.60;;;;;;5030216;28;20061;-68
2022/07/17 11:42:10;;;;;;;0.00;0.00;;;22.40;54.00;;;;;;5029452;28;20041;-67
2022/07/17 11:44:36;;;;;;;0.00;0.00;;;22.40;56.20;;;;;;5028432;28;20431;-68
2022/07/17 11:47:02;;;;;;;0.00;0.00;;;22.50;56.80;;;;;;5029523;28;20041;-68
2022/07/17 11:49:34;;;;;;;0.00;0.00;;;22.50;55.40;;;;;;5029327;28;20403;-67
2022/07/17 11:52:11;;;;;;;0.00;0.00;;;22.60;56.50;;;;;;5029336;28;20558;-68
2022/07/17 11:54:54;;;;;;;0.00;0.00;;;22.70;54.50;;;;;;5027741;28;20513;-68
2022/07/17 11:57:20;;;;;;;4.47;0.47;;;22.80;55.70;;;;;;5011005;28;20401;-68
2022/07/17 11:59:46;;;;;;;0.20;0.15;;;22.80;54.50;;;;;;5027732;28;20095;-68
2022/07/17 12:02:24;;;;;;;0.00;0.00;;;22.90;54.50;;;;;;5029110;28;20071;-68
2022/07/17 12:04:57;;;;;;;0.00;0.00;;;22.90;54.60;;;;;;5010632;28;20082;-70
2022/07/17 12:07:44;;;;;;;0.00;0.00;;;23.10;53.70;;;;;;5028580;28;20046;-72
2022/07/17 12:10:21;;;;;;;0.00;0.00;;;23.20;54.40;;;;;;5005268;28;20483;-69
2022/07/17 12:12:56;;;;;;;0.00;0.00;;;23.50;54.50;;;;;;5027312;28;20046;-68
2022/07/17 12:15:33;;;;;;;0.00;0.00;;;23.50;54.70;;;;;;5021494;28;20053;-68
2022/07/17 12:17:58;;;;;;;0.00;0.00;;;23.70;55.00;;;;;;4999094;28;20479;-70
2022/07/17 12:20:24;;;;;;;0.00;0.00;;;23.60;51.90;;;;;;5025481;28;20081;-68
2022/07/17 12:22:51;;;;;;;0.00;0.00;;;23.50;52.90;;;;;;5025638;28;20068;-68
2022/07/17 12:25:27;;;;;;;0.00;0.00;;;23.50;52.80;;;;;;5027836;28;20148;-69
2022/07/17 12:27:53;;;;;;;0.00;0.00;;;23.50;52.60;;;;;;5007819;28;20073;-69
2022/07/17 12:30:20;;;;;;;0.00;0.00;;;23.60;54.00;;;;;;4989931;28;20085;-68
2022/07/17 12:32:47;;;;;;;0.00;0.00;;;23.70;51.70;;;;;;5007626;28;20120;-69
2022/07/17 12:35:14;;;;;;;0.00;0.00;;;23.70;52.50;;;;;;5011855;28;20054;-69
2022/07/17 12:37:40;;;;;;;0.10;0.10;;;23.80;51.90;;;;;;5016662;28;20079;-68
2022/07/17 12:40:07;;;;;;;0.00;0.00;;;23.80;53.00;;;;;;5026380;28;20076;-69
2022/07/17 12:42:33;;;;;;;0.00;0.00;;;23.90;52.90;;;;;;5026901;28;20422;-69
2022/07/17 12:44:58;;;;;;;0.00;0.00;;;24.00;53.40;;;;;;5028675;28;20133;-68
2022/07/17 12:47:24;;;;;;;0.00;0.00;;;24.00;52.90;;;;;;5028859;28;20045;-68